Time;durP1;ratioP1;P1;durP2;ratioP2;P2;SDS_P1;SDS_P2;PMS_P1;PMS_P2;Temp;Humidity;BMP_temperature;BMP_pressure;BME280_temperature;BME280_humidity;BME280_pressure;Samples;Min_cycle;Max_cycle;Signal;HPM_P1;HPM_P2
2023/03/09 00:00:53;;;;;;;0.70;0.50;;;;;;;;;;4992483;28;20445;-72
2023/03/09 00:03:19;;;;;;;0.67;0.60;;;;;;;;;;4993704;28;20532;-72
2023/03/09 00:05:56;;;;;;;0.30;0.30;;;;;;;;;;4993920;28;20464;-72
2023/03/09 00:08:22;;;;;;;0.50;0.43;;;;;;;;;;4994052;28;20411;-72
2023/03/09 00:10:52;;;;;;;0.80;0.80;;;;;;;;;;4993529;28;20456;-73
2023/03/09 00:13:19;;;;;;;0.53;0.53;;;;;;;;;;4993615;28;20425;-72
2023/03/09 00:15:49;;;;;;;0.40;0.40;;;;;;;;;;4993572;28;20409;-73
2023/03/09 00:18:16;;;;;;;2.13;0.90;;;;;;;;;;4994183;28;20424;-72
2023/03/09 00:20:41;;;;;;;1.63;0.63;;;;;;;;;;4993406;28;20755;-73
2023/03/09 00:23:10;;;;;;;0.67;0.67;;;;;;;;;;4993828;28;20492;-73
2023/03/09 00:25:36;;;;;;;0.43;0.43;;;;;;;;;;4993483;28;20405;-72
2023/03/09 00:28:01;;;;;;;0.57;0.57;;;;;;;;;;4993775;28;20413;-72
2023/03/09 00:30:27;;;;;;;0.60;0.60;;;;;;;;;;4993650;28;20995;-72
2023/03/09 00:32:53;;;;;;;0.63;0.63;;;;;;;;;;4993434;28;20486;-72
2023/03/09 00:35:19;;;;;;;1.33;0.50;;;;;;;;;;4993515;28;20416;-73
2023/03/09 00:37:46;;;;;;;0.97;0.77;;;;;;;;;;4992287;28;20540;-72
2023/03/09 00:40:14;;;;;;;0.67;0.67;;;;;;;;;;4993382;28;20417;-72
2023/03/09 00:42:42;;;;;;;0.70;0.70;;;;;;;;;;4993415;28;20452;-72
2023/03/09 00:45:08;;;;;;;0.60;0.60;;;;;;;;;;4993644;28;20533;-73
2023/03/09 00:47:34;;;;;;;0.70;0.70;;;;;;;;;;4997004;28;20421;-72
2023/03/09 00:50:00;;;;;;;0.50;0.50;;;;;;;;;;4996872;28;20443;-72
2023/03/09 00:52:27;;;;;;;0.47;0.47;;;;;;;;;;4997376;28;20428;-72
2023/03/09 00:54:53;;;;;;;0.90;0.90;;;;;;;;;;4997026;28;20437;-72
2023/03/09 00:57:19;;;;;;;4.13;0.83;;;;;;;;;;4997203;28;20886;-72
2023/03/09 00:59:45;;;;;;;0.80;0.80;;;;;;;;;;4997434;28;20446;-72
2023/03/09 01:02:11;;;;;;;1.47;0.60;;;;;;;;;;4996898;28;20421;-72
2023/03/09 01:07:42;;;;;;;1.50;0.70;;;;;;;;;;4996835;28;20952;-72
2023/03/09 01:10:10;;;;;;;0.70;0.70;;;;;;;;;;4996650;28;20417;-72
2023/03/09 01:12:37;;;;;;;0.53;0.53;;;;;;;;;;4996965;28;20452;-72
2023/03/09 01:15:04;;;;;;;0.60;0.60;;;;;;;;;;4996922;28;20463;-72
2023/03/09 01:17:30;;;;;;;0.80;0.80;;;;;;;;;;4996603;28;20464;-72
2023/03/09 01:19:56;;;;;;;1.80;0.50;;;;;;;;;;4996465;28;20417;-73
2023/03/09 01:22:22;;;;;;;1.00;0.83;;;;;;;;;;4996712;28;20428;-72
2023/03/09 01:27:51;;;;;;;4.57;0.80;;;;;;;;;;4996508;28;20955;-72
2023/03/09 01:30:17;;;;;;;4.27;1.07;;;;;;;;;;4996248;28;20835;-71
2023/03/09 01:32:44;;;;;;;1.70;0.60;;;;;;;;;;4996283;28;20453;-72
2023/03/09 01:35:09;;;;;;;0.50;0.50;;;;;;;;;;4994999;28;20944;-71
2023/03/09 01:37:35;;;;;;;0.70;0.70;;;;;;;;;;4996308;28;20421;-71
2023/03/09 01:40:05;;;;;;;0.50;0.50;;;;;;;;;;4996124;28;20448;-71
2023/03/09 01:42:31;;;;;;;4.90;0.83;;;;;;;;;;4996172;28;20417;-71
2023/03/09 01:45:16;;;;;;;2.20;0.70;;;;;;;;;;4994818;28;20464;-71
2023/03/09 01:47:42;;;;;;;0.90;0.90;;;;;;;;;;4996170;28;20428;-71
2023/03/09 01:50:08;;;;;;;1.27;0.97;;;;;;;;;;4995822;28;20417;-72
2023/03/09 01:52:34;;;;;;;1.57;1.03;;;;;;;;;;4994666;28;20519;-72
2023/03/09 01:55:01;;;;;;;0.53;0.47;;;;;;;;;;4995845;28;20431;-71
2023/03/09 01:57:34;;;;;;;1.13;0.90;;;;;;;;;;4996079;28;20517;-72
2023/03/09 02:00:08;;;;;;;2.93;0.90;;;;;;;;;;4995812;28;20417;-71
2023/03/09 02:02:38;;;;;;;0.83;0.60;;;;;;;;;;4995893;28;20498;-71
2023/03/09 02:05:06;;;;;;;4.40;1.27;;;;;;;;;;4995728;28;20760;-71
2023/03/09 02:07:34;;;;;;;2.20;1.00;;;;;;;;;;4995669;28;20514;-71
2023/03/09 02:10:19;;;;;;;0.80;0.80;;;;;;;;;;4995814;28;20414;-71
2023/03/09 02:12:52;;;;;;;2.40;1.20;;;;;;;;;;4995485;28;20440;-71
2023/03/09 02:15:18;;;;;;;2.20;1.33;;;;;;;;;;4995778;28;20389;-71
2023/03/09 02:17:44;;;;;;;5.90;1.50;;;;;;;;;;4995904;28;20412;-71
2023/03/09 02:20:23;;;;;;;3.73;1.30;;;;;;;;;;4995941;28;20765;-71
2023/03/09 02:22:49;;;;;;;1.27;1.17;;;;;;;;;;4995665;28;20417;-72
2023/03/09 02:25:18;;;;;;;6.03;1.13;;;;;;;;;;4995345;28;20952;-72
2023/03/09 02:27:45;;;;;;;3.13;0.87;;;;;;;;;;4995334;28;20421;-71
2023/03/09 02:30:12;;;;;;;1.20;0.80;;;;;;;;;;4995086;28;20917;-71
2023/03/09 02:32:38;;;;;;;2.00;0.80;;;;;;;;;;4995060;28;20488;-71
2023/03/09 02:35:08;;;;;;;3.63;0.73;;;;;;;;;;4995099;28;20421;-71
2023/03/09 02:37:35;;;;;;;1.23;0.40;;;;;;;;;;4995111;28;20929;-71
2023/03/09 02:40:04;;;;;;;1.73;0.40;;;;;;;;;;4995051;28;20417;-71
2023/03/09 02:42:31;;;;;;;0.30;0.30;;;;;;;;;;4994798;28;21050;-72
2023/03/09 02:44:57;;;;;;;0.30;0.30;;;;;;;;;;4995251;28;20520;-71
2023/03/09 02:47:24;;;;;;;0.40;0.30;;;;;;;;;;4995138;28;20843;-71
2023/03/09 02:49:50;;;;;;;0.30;0.30;;;;;;;;;;4993694;28;20432;-71
2023/03/09 02:52:16;;;;;;;0.40;0.40;;;;;;;;;;4995014;28;20534;-72
2023/03/09 02:54:42;;;;;;;0.20;0.20;;;;;;;;;;4995054;28;20894;-71
2023/03/09 02:57:08;;;;;;;0.20;0.20;;;;;;;;;;4994984;28;20430;-71
2023/03/09 02:59:34;;;;;;;2.53;0.30;;;;;;;;;;4994947;28;20417;-71
2023/03/09 03:02:00;;;;;;;0.30;0.30;;;;;;;;;;4995043;28;20427;-71
2023/03/09 03:04:26;;;;;;;0.30;0.30;;;;;;;;;;4994589;28;20467;-72
2023/03/09 03:06:52;;;;;;;0.50;0.30;;;;;;;;;;4993283;28;20433;-71
2023/03/09 03:09:18;;;;;;;0.30;0.30;;;;;;;;;;4994053;28;20417;-71
2023/03/09 03:11:44;;;;;;;0.20;0.20;;;;;;;;;;4993074;28;20499;-71
2023/03/09 03:14:10;;;;;;;0.20;0.20;;;;;;;;;;4994753;28;20421;-71
2023/03/09 03:16:36;;;;;;;0.30;0.30;;;;;;;;;;4994293;28;20422;-71
2023/03/09 03:19:02;;;;;;;0.30;0.30;;;;;;;;;;4994594;28;20428;-71
2023/03/09 03:21:28;;;;;;;0.23;0.23;;;;;;;;;;4995069;28;20914;-71
2023/03/09 03:23:54;;;;;;;1.03;0.40;;;;;;;;;;4994206;28;20429;-71
2023/03/09 03:26:20;;;;;;;1.73;0.37;;;;;;;;;;4994521;28;20425;-72
2023/03/09 03:28:46;;;;;;;0.30;0.30;;;;;;;;;;4994485;28;20412;-71
2023/03/09 03:31:12;;;;;;;0.20;0.20;;;;;;;;;;4994329;28;20468;-72
2023/03/09 03:33:38;;;;;;;0.20;0.20;;;;;;;;;;4994407;28;20501;-71
2023/03/09 03:36:05;;;;;;;2.20;0.40;;;;;;;;;;4993430;28;20524;-71
2023/03/09 03:38:31;;;;;;;0.20;0.20;;;;;;;;;;4994291;28;20425;-71
2023/03/09 03:40:57;;;;;;;0.30;0.30;;;;;;;;;;4994258;28;20754;-71
2023/03/09 03:43:23;;;;;;;0.20;0.20;;;;;;;;;;4994387;28;20472;-71
2023/03/09 03:45:49;;;;;;;0.20;0.20;;;;;;;;;;4994311;28;20432;-71
2023/03/09 03:48:15;;;;;;;0.20;0.20;;;;;;;;;;4993849;28;20417;-71
2023/03/09 03:50:41;;;;;;;0.30;0.30;;;;;;;;;;4993828;28;20541;-71
2023/03/09 03:53:07;;;;;;;0.30;0.30;;;;;;;;;;4994134;28;20782;-71
2023/03/09 03:55:33;;;;;;;0.20;0.20;;;;;;;;;;4994127;28;20421;-71
2023/03/09 03:57:59;;;;;;;0.40;0.30;;;;;;;;;;4994587;28;20417;-71
2023/03/09 04:00:25;;;;;;;0.20;0.20;;;;;;;;;;4993976;28;20436;-71
2023/03/09 04:02:51;;;;;;;1.17;0.30;;;;;;;;;;4994454;28;20446;-71
2023/03/09 04:05:17;;;;;;;0.20;0.20;;;;;;;;;;4993913;28;20560;-71
2023/03/09 04:07:43;;;;;;;0.50;0.30;;;;;;;;;;4993864;28;20425;-71
2023/03/09 04:10:10;;;;;;;0.30;0.30;;;;;;;;;;4993871;28;20516;-71
2023/03/09 04:12:36;;;;;;;1.27;0.53;;;;;;;;;;4993844;28;20429;-71
2023/03/09 04:15:02;;;;;;;0.27;0.27;;;;;;;;;;4993651;28;20417;-71
2023/03/09 04:17:28;;;;;;;0.30;0.30;;;;;;;;;;4993895;28;20501;-72
2023/03/09 04:19:54;;;;;;;0.60;0.30;;;;;;;;;;4993883;28;20460;-71
2023/03/09 04:22:19;;;;;;;1.27;0.30;;;;;;;;;;4997151;28;20421;-71
2023/03/09 04:27:49;;;;;;;1.13;1.03;;;;;;;;;;4997611;28;20805;-71
2023/03/09 04:30:20;;;;;;;0.50;0.30;;;;;;;;;;4997495;28;20464;-71
2023/03/09 04:32:46;;;;;;;0.60;0.30;;;;;;;;;;4997411;28;20496;-71
2023/03/09 04:35:12;;;;;;;0.30;0.30;;;;;;;;;;4997687;28;20516;-71
2023/03/09 04:37:37;;;;;;;0.63;0.63;;;;;;;;;;4997585;28;20975;-70
2023/03/09 04:40:05;;;;;;;0.30;0.30;;;;;;;;;;4997241;28;20928;-71
2023/03/09 04:42:31;;;;;;;1.13;0.40;;;;;;;;;;4996984;28;20424;-71
2023/03/09 04:48:00;;;;;;;0.47;0.47;;;;;;;;;;4997471;28;20520;-71
2023/03/09 04:50:26;;;;;;;0.40;0.40;;;;;;;;;;4997274;28;20806;-72
2023/03/09 04:52:55;;;;;;;0.40;0.40;;;;;;;;;;4997125;28;20494;-71
2023/03/09 04:55:21;;;;;;;1.00;0.30;;;;;;;;;;4997314;28;20409;-71
2023/03/09 04:57:47;;;;;;;0.30;0.30;;;;;;;;;;4997254;28;20425;-71
2023/03/09 05:00:14;;;;;;;0.30;0.30;;;;;;;;;;4996840;28;20475;-71
2023/03/09 05:02:41;;;;;;;0.30;0.30;;;;;;;;;;4996888;28;20428;-71
2023/03/09 05:05:08;;;;;;;2.23;0.40;;;;;;;;;;4997314;28;20409;-71
2023/03/09 05:07:34;;;;;;;0.40;0.40;;;;;;;;;;4996739;28;20509;-71
2023/03/09 05:10:00;;;;;;;0.40;0.40;;;;;;;;;;4996617;28;20917;-72
2023/03/09 05:12:31;;;;;;;0.40;0.40;;;;;;;;;;4996680;28;20480;-71
2023/03/09 05:15:00;;;;;;;0.70;0.70;;;;;;;;;;4996970;28;20389;-71
2023/03/09 05:17:26;;;;;;;0.50;0.50;;;;;;;;;;4996555;28;20479;-71
2023/03/09 05:19:52;;;;;;;0.67;0.53;;;;;;;;;;4996479;28;20417;-71
2023/03/09 05:22:18;;;;;;;0.50;0.50;;;;;;;;;;4995995;28;20436;-71
2023/03/09 05:24:44;;;;;;;0.70;0.70;;;;;;;;;;4996459;28;20524;-71
2023/03/09 05:27:10;;;;;;;1.90;0.90;;;;;;;;;;4996454;28;20453;-71
2023/03/09 05:29:36;;;;;;;1.80;0.50;;;;;;;;;;4996364;28;20901;-71
2023/03/09 05:32:02;;;;;;;1.90;0.70;;;;;;;;;;4995748;28;20483;-71
2023/03/09 05:34:28;;;;;;;0.60;0.60;;;;;;;;;;4996525;28;20462;-71
2023/03/09 05:36:54;;;;;;;0.70;0.70;;;;;;;;;;4994988;28;20428;-71
2023/03/09 05:39:20;;;;;;;2.00;0.60;;;;;;;;;;4997007;28;20425;-71
2023/03/09 05:41:46;;;;;;;4.40;0.80;;;;;;;;;;4996454;28;20471;-71
2023/03/09 05:44:12;;;;;;;2.07;0.50;;;;;;;;;;4995979;28;20468;-71
2023/03/09 05:46:39;;;;;;;0.90;0.50;;;;;;;;;;4996376;28;20632;-72
2023/03/09 05:49:05;;;;;;;0.60;0.60;;;;;;;;;;4996269;28;20421;-71
2023/03/09 05:51:30;;;;;;;1.43;0.60;;;;;;;;;;4995875;28;20481;-71
2023/03/09 05:53:56;;;;;;;0.30;0.30;;;;;;;;;;4994782;28;20432;-71
2023/03/09 05:56:23;;;;;;;1.67;0.77;;;;;;;;;;4995947;28;20894;-71
2023/03/09 05:58:52;;;;;;;0.50;0.50;;;;;;;;;;4996100;28;20512;-71
2023/03/09 06:01:20;;;;;;;2.53;0.60;;;;;;;;;;4995956;28;20425;-71
2023/03/09 06:03:46;;;;;;;0.50;0.50;;;;;;;;;;4996053;28;20416;-72
2023/03/09 06:06:12;;;;;;;0.77;0.63;;;;;;;;;;4995718;28;20425;-71
2023/03/09 06:08:38;;;;;;;3.77;1.10;;;;;;;;;;4995914;28;20420;-71
2023/03/09 06:11:04;;;;;;;2.13;1.00;;;;;;;;;;4996625;28;20485;-71
2023/03/09 06:13:30;;;;;;;2.97;0.80;;;;;;;;;;4995870;28;20425;-71
2023/03/09 06:15:56;;;;;;;1.40;0.70;;;;;;;;;;4995417;28;20417;-71
2023/03/09 06:18:22;;;;;;;2.83;1.70;;;;;;;;;;4995842;28;20489;-71
2023/03/09 06:20:48;;;;;;;1.43;1.03;;;;;;;;;;4995380;28;20425;-71
2023/03/09 06:23:14;;;;;;;3.37;0.80;;;;;;;;;;4995481;28;20989;-71
2023/03/09 06:25:41;;;;;;;1.07;1.07;;;;;;;;;;4995643;28;20425;-71
2023/03/09 06:28:07;;;;;;;3.97;1.17;;;;;;;;;;4995315;28;20747;-71
2023/03/09 06:30:33;;;;;;;2.83;1.07;;;;;;;;;;4995344;28;20483;-71
2023/03/09 06:32:59;;;;;;;2.90;1.13;;;;;;;;;;4995292;28;20456;-71
2023/03/09 06:35:25;;;;;;;4.07;1.20;;;;;;;;;;4995474;28;20507;-71
2023/03/09 06:37:52;;;;;;;3.13;0.90;;;;;;;;;;4995474;28;20901;-71
2023/03/09 06:40:18;;;;;;;2.33;0.97;;;;;;;;;;4995298;28;20825;-72
2023/03/09 06:42:44;;;;;;;7.13;1.70;;;;;;;;;;4995056;28;20476;-71
2023/03/09 06:45:10;;;;;;;4.83;1.87;;;;;;;;;;4994339;28;20509;-71
2023/03/09 06:47:36;;;;;;;1.03;0.83;;;;;;;;;;4995207;28;20432;-71
2023/03/09 06:50:02;;;;;;;2.27;1.50;;;;;;;;;;4995102;28;20417;-71
2023/03/09 06:52:28;;;;;;;5.80;1.50;;;;;;;;;;4994703;28;20472;-71
2023/03/09 06:54:54;;;;;;;2.50;1.20;;;;;;;;;;4994823;28;20428;-71
2023/03/09 06:57:20;;;;;;;4.40;1.13;;;;;;;;;;4993437;28;20426;-71
2023/03/09 06:59:46;;;;;;;0.87;0.60;;;;;;;;;;4994943;28;20765;-71
2023/03/09 07:02:13;;;;;;;2.10;0.70;;;;;;;;;;4994540;28;20424;-71
2023/03/09 07:04:39;;;;;;;1.57;0.90;;;;;;;;;;4994663;28;20425;-71
2023/03/09 07:07:05;;;;;;;2.10;0.80;;;;;;;;;;4994819;28;20520;-71
2023/03/09 07:09:34;;;;;;;2.50;0.83;;;;;;;;;;4995005;28;20468;-71
2023/03/09 07:12:00;;;;;;;1.80;0.90;;;;;;;;;;4994342;28;20482;-71
2023/03/09 07:14:26;;;;;;;1.80;0.80;;;;;;;;;;4994620;28;20524;-71
2023/03/09 07:16:53;;;;;;;1.70;0.80;;;;;;;;;;4994614;28;20425;-71
2023/03/09 07:19:19;;;;;;;3.37;1.10;;;;;;;;;;4994277;28;20500;-71
2023/03/09 07:21:45;;;;;;;1.17;1.10;;;;;;;;;;4994512;28;20460;-71
2023/03/09 07:27:14;;;;;;;3.03;2.10;;;;;;;;;;4994258;28;20443;-71
2023/03/09 07:29:40;;;;;;;4.23;0.80;;;;;;;;;;4994625;28;20886;-71
2023/03/09 07:32:07;;;;;;;3.40;1.10;;;;;;;;;;4994438;28;20909;-72
2023/03/09 07:37:36;;;;;;;3.60;0.87;;;;;;;;;;4993998;28;20391;-72
2023/03/09 07:40:03;;;;;;;1.07;0.97;;;;;;;;;;4992589;28;20429;-72
2023/03/09 07:42:29;;;;;;;1.83;0.90;;;;;;;;;;4992520;28;20877;-72
2023/03/09 07:44:55;;;;;;;7.17;1.30;;;;;;;;;;4994183;28;20521;-72
2023/03/09 07:47:20;;;;;;;2.33;0.70;;;;;;;;;;4993783;28;20512;-69
2023/03/09 07:49:46;;;;;;;1.83;1.73;;;;;;;;;;4993153;28;20504;-69
2023/03/09 07:52:12;;;;;;;10.47;1.57;;;;;;;;;;4992862;28;20481;-72
2023/03/09 07:54:38;;;;;;;2.20;0.60;;;;;;;;;;4993447;28;20417;-71
2023/03/09 07:57:05;;;;;;;2.03;0.97;;;;;;;;;;4993712;28;20492;-72
2023/03/09 07:59:31;;;;;;;2.57;1.03;;;;;;;;;;4993644;28;20417;-72
2023/03/09 08:01:57;;;;;;;1.13;0.60;;;;;;;;;;4992275;28;20864;-72
2023/03/09 08:04:23;;;;;;;1.50;0.70;;;;;;;;;;4993535;28;20421;-71
2023/03/09 08:06:49;;;;;;;2.27;1.03;;;;;;;;;;4993728;28;20924;-72
2023/03/09 08:09:17;;;;;;;4.67;1.13;;;;;;;;;;4992408;28;20417;-73
2023/03/09 08:11:46;;;;;;;6.80;1.70;;;;;;;;;;4993828;28;20481;-71
2023/03/09 08:14:12;;;;;;;5.63;0.93;;;;;;;;;;4993877;28;20423;-72
2023/03/09 08:16:38;;;;;;;1.23;1.00;;;;;;;;;;4993927;28;20428;-72
2023/03/09 08:19:04;;;;;;;7.23;1.00;;;;;;;;;;4994293;28;20417;-73
2023/03/09 08:21:30;;;;;;;4.77;1.10;;;;;;;;;;4993563;28;20421;-73
2023/03/09 08:23:58;;;;;;;3.77;1.00;;;;;;;;;;4993715;28;20508;-73
2023/03/09 08:26:24;;;;;;;1.10;1.07;;;;;;;;;;4992077;28;20425;-72
2023/03/09 08:28:50;;;;;;;4.93;1.33;;;;;;;;;;4993643;28;20520;-73
2023/03/09 08:31:17;;;;;;;1.27;0.60;;;;;;;;;;4993510;28;20476;-72
2023/03/09 08:33:43;;;;;;;2.57;0.70;;;;;;;;;;4993436;28;20960;-72
2023/03/09 08:36:12;;;;;;;4.27;1.20;;;;;;;;;;4993560;28;20432;-71
2023/03/09 08:38:38;;;;;;;1.33;0.90;;;;;;;;;;4993593;28;20756;-72
2023/03/09 08:41:04;;;;;;;4.63;1.50;;;;;;;;;;4993970;28;20556;-72
2023/03/09 08:43:31;;;;;;;4.33;1.40;;;;;;;;;;4993235;28;20476;-72
2023/03/09 08:45:57;;;;;;;6.17;1.20;;;;;;;;;;4993251;28;20449;-73
2023/03/09 08:48:23;;;;;;;1.13;1.13;;;;;;;;;;4992118;28;20429;-73
2023/03/09 08:50:49;;;;;;;2.93;0.70;;;;;;;;;;4993273;28;20510;-73
2023/03/09 08:53:15;;;;;;;7.07;1.20;;;;;;;;;;4993764;28;20440;-72
2023/03/09 08:55:41;;;;;;;6.73;1.43;;;;;;;;;;4993318;28;20498;-71
2023/03/09 08:58:07;;;;;;;3.93;1.60;;;;;;;;;;4993269;28;20571;-72
2023/03/09 09:00:33;;;;;;;3.33;0.90;;;;;;;;;;4993334;28;20417;-73
2023/03/09 09:02:59;;;;;;;8.97;1.40;;;;;;;;;;4993094;28;20421;-71
2023/03/09 09:05:25;;;;;;;4.73;1.60;;;;;;;;;;4993302;28;20527;-73
2023/03/09 09:07:51;;;;;;;7.43;1.57;;;;;;;;;;4995692;28;20421;-72
2023/03/09 09:10:17;;;;;;;10.93;1.33;;;;;;;;;;4997241;28;20772;-72
2023/03/09 09:12:43;;;;;;;4.00;1.43;;;;;;;;;;4996715;28;20476;-72
2023/03/09 09:15:10;;;;;;;7.37;0.97;;;;;;;;;;4996537;28;20440;-73
2023/03/09 09:17:37;;;;;;;5.33;1.30;;;;;;;;;;4996538;28;20420;-73
2023/03/09 09:20:07;;;;;;;7.47;1.53;;;;;;;;;;4996916;28;20537;-72
2023/03/09 09:22:33;;;;;;;6.57;1.40;;;;;;;;;;4996415;28;20984;-72
2023/03/09 09:24:59;;;;;;;2.37;0.80;;;;;;;;;;4996284;28;20733;-72
2023/03/09 09:27:25;;;;;;;6.30;2.10;;;;;;;;;;4996878;28;20428;-72
2023/03/09 09:29:52;;;;;;;7.23;1.93;;;;;;;;;;4996460;28;20782;-73
2023/03/09 09:32:18;;;;;;;7.37;1.43;;;;;;;;;;4996607;28;20468;-72
2023/03/09 09:34:44;;;;;;;2.33;1.10;;;;;;;;;;4996527;28;20820;-73
2023/03/09 09:37:11;;;;;;;4.73;1.70;;;;;;;;;;4994931;28;20524;-72
2023/03/09 09:39:38;;;;;;;1.53;1.27;;;;;;;;;;4996135;28;20414;-72
2023/03/09 09:42:05;;;;;;;4.03;1.27;;;;;;;;;;4994912;28;20424;-71
2023/03/09 09:44:38;;;;;;;4.37;1.37;;;;;;;;;;4995894;28;21047;-72
2023/03/09 09:47:05;;;;;;;6.23;1.67;;;;;;;;;;4996245;28;20432;-72
2023/03/09 09:49:34;;;;;;;7.10;2.30;;;;;;;;;;4994843;28;20760;-73
2023/03/09 09:52:14;;;;;;;6.80;1.67;;;;;;;;;;4996105;28;21031;-72
2023/03/09 09:54:55;;;;;;;4.73;1.70;;;;;;;;;;4996248;28;20401;-72
2023/03/09 09:57:39;;;;;;;5.23;1.17;;;;;;;;;;4996025;28;20389;-73
2023/03/09 10:00:14;;;;;;;4.43;1.03;;;;;;;;;;4995715;28;20515;-72
2023/03/09 10:02:40;;;;;;;6.77;1.10;;;;;;;;;;4995768;28;20913;-72
2023/03/09 10:05:29;;;;;;;4.20;1.47;;;;;;;;;;4994901;28;20417;-72
2023/03/09 10:07:56;;;;;;;4.90;1.13;;;;;;;;;;4995700;28;20429;-72
2023/03/09 10:10:23;;;;;;;1.90;1.10;;;;;;;;;;4995596;28;20413;-72
2023/03/09 10:12:49;;;;;;;4.20;0.87;;;;;;;;;;4995828;28;20955;-72
2023/03/09 10:15:29;;;;;;;5.23;1.40;;;;;;;;;;4995511;28;20417;-72
2023/03/09 10:17:58;;;;;;;4.83;0.83;;;;;;;;;;4994752;28;20401;-72
2023/03/09 10:20:28;;;;;;;2.50;1.03;;;;;;;;;;4994842;28;20413;-72
2023/03/09 10:22:55;;;;;;;3.03;0.87;;;;;;;;;;4995609;28;21085;-72
2023/03/09 10:25:22;;;;;;;4.17;0.90;;;;;;;;;;4995986;28;20417;-72
2023/03/09 10:27:59;;;;;;;2.53;1.00;;;;;;;;;;4995489;28;20414;-72
2023/03/09 10:30:30;;;;;;;5.57;1.63;;;;;;;;;;4995200;28;20409;-72
2023/03/09 10:32:59;;;;;;;9.50;1.50;;;;;;;;;;4995348;28;20501;-72
2023/03/09 10:35:42;;;;;;;3.67;0.87;;;;;;;;;;4993945;28;20429;-72
2023/03/09 10:38:13;;;;;;;4.03;1.13;;;;;;;;;;4995142;28;20987;-72
2023/03/09 10:40:49;;;;;;;4.87;1.30;;;;;;;;;;4995188;28;20409;-72
2023/03/09 10:43:24;;;;;;;2.57;1.43;;;;;;;;;;4994866;28;20515;-72
2023/03/09 10:45:50;;;;;;;4.60;2.07;;;;;;;;;;4995191;28;20507;-72
2023/03/09 10:48:35;;;;;;;2.70;1.10;;;;;;;;;;4995388;28;20425;-72
2023/03/09 10:51:05;;;;;;;12.20;4.27;;;;;;;;;;4994865;28;20449;-72
2023/03/09 10:53:31;;;;;;;6.80;1.40;;;;;;;;;;4994612;28;20465;-73
2023/03/09 10:56:16;;;;;;;7.93;2.23;;;;;;;;;;4994689;28;20413;-72
2023/03/09 10:58:42;;;;;;;7.53;3.10;;;;;;;;;;4994598;28;20414;-72
2023/03/09 11:01:11;;;;;;;1.57;1.13;;;;;;;;;;4994691;28;20771;-72
2023/03/09 11:03:39;;;;;;;1.63;0.70;;;;;;;;;;4994502;28;20418;-72
2023/03/09 11:06:10;;;;;;;4.17;1.57;;;;;;;;;;4994847;28;20917;-72
2023/03/09 11:08:36;;;;;;;1.50;1.13;;;;;;;;;;4994519;28;20413;-71
2023/03/09 11:11:17;;;;;;;8.17;1.17;;;;;;;;;;4994479;28;20563;-72
2023/03/09 11:13:46;;;;;;;0.93;0.50;;;;;;;;;;4994515;28;20417;-72
2023/03/09 11:16:14;;;;;;;2.23;0.80;;;;;;;;;;4994402;28;20548;-72
2023/03/09 11:18:40;;;;;;;2.13;1.20;;;;;;;;;;4994760;28;20507;-72
2023/03/09 11:21:06;;;;;;;51.00;21.50;;;;;;;;;;4994075;28;20405;-73
2023/03/09 11:23:36;;;;;;;12.20;6.27;;;;;;;;;;4994576;28;20421;-72
2023/03/09 11:26:02;;;;;;;3.83;1.30;;;;;;;;;;4994375;28;20422;-72
2023/03/09 11:28:28;;;;;;;2.20;1.00;;;;;;;;;;4994424;28;20452;-73
2023/03/09 11:30:55;;;;;;;2.43;0.70;;;;;;;;;;4993397;28;20473;-72
2023/03/09 11:33:21;;;;;;;3.80;2.03;;;;;;;;;;4994049;28;20425;-72
2023/03/09 11:35:49;;;;;;;2.03;1.00;;;;;;;;;;4994176;28;20425;-73
2023/03/09 11:38:16;;;;;;;12.47;2.87;;;;;;;;;;4993956;28;20437;-72
2023/03/09 11:40:43;;;;;;;8.97;6.73;;;;;;;;;;4994252;28;20423;-72
2023/03/09 11:43:41;;;;;;;7.47;4.80;;;;;;;;;;4993666;28;20745;-72
2023/03/09 11:46:11;;;;;;;7.63;4.23;;;;;;;;;;4971592;28;20437;-72
2023/03/09 11:48:40;;;;;;;2.83;2.63;;;;;;;;;;4993807;28;20421;-72
2023/03/09 11:51:22;;;;;;;2.27;1.70;;;;;;;;;;4993848;28;20468;-72
2023/03/09 11:56:52;;;;;;;3.50;1.97;;;;;;;;;;4993803;28;20408;-72
2023/03/09 11:59:22;;;;;;;5.10;1.97;;;;;;;;;;4993584;28;20413;-72
2023/03/09 12:01:48;;;;;;;4.53;3.33;;;;;;;;;;4993599;28;20500;-71
2023/03/09 12:04:15;;;;;;;2.80;2.60;;;;;;;;;;4993942;28;20831;-71
2023/03/09 12:07:00;;;;;;;7.17;2.50;;;;;;;;;;4994016;28;20423;-72
2023/03/09 12:09:26;;;;;;;6.23;3.87;;;;;;;;;;4993876;28;20421;-72
2023/03/09 12:11:58;;;;;;;3.80;2.20;;;;;;;;;;4993500;28;20572;-72
2023/03/09 12:14:30;;;;;;;3.53;2.30;;;;;;;;;;4994130;28;20409;-73
2023/03/09 12:16:59;;;;;;;12.87;2.77;;;;;;;;;;4993818;28;20417;-72
2023/03/09 12:19:28;;;;;;;2.97;2.73;;;;;;;;;;4993836;28;20535;-71
2023/03/09 12:22:02;;;;;;;7.33;4.13;;;;;;;;;;4993616;28;20444;-73
2023/03/09 12:24:41;;;;;;;8.60;3.40;;;;;;;;;;4992208;28;20421;-73
2023/03/09 12:27:19;;;;;;;7.60;2.53;;;;;;;;;;4992649;28;20425;-73
2023/03/09 12:29:47;;;;;;;3.70;1.70;;;;;;;;;;4993367;28;20424;-73
2023/03/09 12:32:25;;;;;;;3.60;0.90;;;;;;;;;;4993589;28;20857;-73
2023/03/09 12:34:53;;;;;;;4.77;1.13;;;;;;;;;;4993351;28;20766;-74
2023/03/09 12:37:30;;;;;;;3.60;1.50;;;;;;;;;;4993567;28;20417;-72
2023/03/09 12:40:00;;;;;;;7.40;1.50;;;;;;;;;;4993122;28;20515;-73
2023/03/09 12:42:26;;;;;;;12.70;1.80;;;;;;;;;;4995002;28;20418;-74
2023/03/09 12:44:52;;;;;;;2.93;1.50;;;;;;;;;;4997510;28;20945;-72
2023/03/09 12:47:37;;;;;;;3.60;0.90;;;;;;;;;;4997255;28;20778;-73
2023/03/09 12:50:22;;;;;;;3.80;1.37;;;;;;;;;;4997373;28;20420;-73
2023/03/09 12:52:57;;;;;;;5.13;2.03;;;;;;;;;;4997327;28;20567;-73
2023/03/09 12:55:43;;;;;;;8.80;1.30;;;;;;;;;;4996970;28;20416;-73
2023/03/09 12:58:21;;;;;;;4.67;1.60;;;;;;;;;;4989488;28;20432;-74
2023/03/09 13:00:53;;;;;;;3.70;2.20;;;;;;;;;;4997344;28;20432;-73
2023/03/09 13:03:22;;;;;;;6.43;1.40;;;;;;;;;;4995927;28;20549;-73
2023/03/09 13:05:51;;;;;;;3.50;1.80;;;;;;;;;;4996712;28;20417;-73
2023/03/09 13:08:18;;;;;;;14.97;2.80;;;;;;;;;;4995589;28;20455;-73
2023/03/09 13:10:44;;;;;;;3.03;2.47;;;;;;;;;;4996774;28;20762;-73
2023/03/09 13:13:29;;;;;;;13.57;1.90;;;;;;;;;;4996639;28;20436;-73
2023/03/09 13:16:13;;;;;;;2.23;1.10;;;;;;;;;;4996774;28;20444;-73
2023/03/09 13:18:39;;;;;;;3.17;1.87;;;;;;;;;;4996907;28;20443;-73
2023/03/09 13:21:24;;;;;;;4.73;0.73;;;;;;;;;;4995588;28;20460;-72
2023/03/09 13:23:51;;;;;;;1.70;1.60;;;;;;;;;;4997110;28;20472;-73
2023/03/09 13:26:18;;;;;;;4.43;1.33;;;;;;;;;;4996780;28;20429;-73
2023/03/09 13:28:46;;;;;;;4.93;1.50;;;;;;;;;;4996672;28;20425;-73
2023/03/09 13:31:26;;;;;;;3.33;1.53;;;;;;;;;;4996247;28;20472;-73
2023/03/09 13:33:52;;;;;;;3.90;1.47;;;;;;;;;;4995025;28;20421;-73
2023/03/09 13:36:27;;;;;;;2.23;0.70;;;;;;;;;;4996258;28;20452;-73
2023/03/09 13:38:56;;;;;;;2.93;1.53;;;;;;;;;;4996402;28;20405;-73
2023/03/09 13:41:23;;;;;;;4.40;1.43;;;;;;;;;;4996688;28;20409;-74
2023/03/09 13:43:53;;;;;;;6.13;1.10;;;;;;;;;;4995923;28;20465;-72
2023/03/09 13:46:25;;;;;;;2.97;1.50;;;;;;;;;;4996280;28;20416;-72
2023/03/09 13:48:52;;;;;;;2.10;0.77;;;;;;;;;;4995982;28;20938;-72
2023/03/09 13:51:41;;;;;;;3.23;1.30;;;;;;;;;;4995892;28;20460;-72
2023/03/09 13:54:26;;;;;;;4.60;2.03;;;;;;;;;;4988870;28;20433;-72
2023/03/09 13:56:59;;;;;;;2.77;1.83;;;;;;;;;;4995859;28;20782;-72
2023/03/09 13:59:26;;;;;;;6.53;2.30;;;;;;;;;;4995703;28;20420;-71
2023/03/09 14:01:52;;;;;;;15.83;9.47;;;;;;;;;;4996132;28;20425;-76
2023/03/09 14:04:18;;;;;;;7.10;4.27;;;;;;;;;;4996052;28;20897;-76
2023/03/09 14:06:44;;;;;;;4.03;3.20;;;;;;;;;;4995951;28;20421;-76
2023/03/09 14:09:24;;;;;;;7.43;3.17;;;;;;;;;;4995674;28;20538;-76
2023/03/09 14:11:50;;;;;;;10.33;4.80;;;;;;;;;;4995556;28;20460;-75
2023/03/09 14:14:20;;;;;;;10.60;2.87;;;;;;;;;;4995569;28;20421;-74
2023/03/09 14:16:48;;;;;;;5.00;1.83;;;;;;;;;;4995903;28;20441;-74
2023/03/09 14:19:34;;;;;;;9.60;2.00;;;;;;;;;;4996046;28;20729;-75
2023/03/09 14:22:01;;;;;;;4.73;1.67;;;;;;;;;;4996182;28;20405;-75
2023/03/09 14:24:31;;;;;;;4.50;2.40;;;;;;;;;;4995675;28;20475;-76
2023/03/09 14:27:10;;;;;;;2.07;0.97;;;;;;;;;;4995380;28;21053;-76
2023/03/09 14:29:36;;;;;;;7.73;2.47;;;;;;;;;;4995526;28;20409;-73
2023/03/09 14:32:22;;;;;;;2.07;0.97;;;;;;;;;;4993875;28;20483;-73
2023/03/09 14:34:49;;;;;;;3.30;1.27;;;;;;;;;;4995169;28;20909;-74
2023/03/09 14:37:23;;;;;;;3.70;1.43;;;;;;;;;;4995410;28;20413;-73
2023/03/09 14:39:49;;;;;;;5.20;2.00;;;;;;;;;;4995164;28;20496;-74
2023/03/09 14:42:18;;;;;;;4.33;2.20;;;;;;;;;;4995857;28;20420;-73
2023/03/09 14:44:45;;;;;;;3.73;1.33;;;;;;;;;;4995179;28;20547;-74
2023/03/09 14:47:14;;;;;;;1.40;1.30;;;;;;;;;;4995304;28;20413;-73
2023/03/09 14:49:40;;;;;;;3.00;1.50;;;;;;;;;;4994972;28;20457;-73
2023/03/09 14:52:09;;;;;;;10.87;1.70;;;;;;;;;;4993583;28;21058;-73
2023/03/09 14:54:35;;;;;;;4.82;3.08;;;;;;;;;;4994076;28;20492;-74
2023/03/09 14:57:01;;;;;;;8.50;1.80;;;;;;;;;;4993540;28;20324;-72
2023/03/09 14:59:26;;;;;;;7.60;1.20;;;;;;;;;;4995454;28;20414;-73
2023/03/09 15:01:55;;;;;;;4.70;2.50;;;;;;;;;;4994634;28;20426;-73
2023/03/09 15:04:21;;;;;;;4.67;3.37;;;;;;;;;;4994383;28;20425;-73
2023/03/09 15:06:50;;;;;;;9.70;3.03;;;;;;;;;;4995356;28;20516;-75
2023/03/09 15:09:16;;;;;;;13.43;2.33;;;;;;;;;;4994702;28;20423;-73
2023/03/09 15:11:43;;;;;;;6.30;1.70;;;;;;;;;;4993114;28;20472;-75